createdAt,value
2017-09-02T00:00:13.321Z,8.0
2017-09-02T00:01:14.968Z,8.2
2017-09-02T00:02:16.619Z,6.6
2017-09-02T00:03:18.343Z,6.7
2017-09-02T00:04:20.020Z,10.0
2017-09-02T00:05:21.680Z,8.0
2017-09-02T00:06:23.337Z,7.8
2017-09-02T00:07:24.986Z,6.4
2017-09-02T00:08:26.672Z,9.0
2017-09-02T00:09:28.331Z,5.7
2017-09-02T00:10:29.984Z,9.9
2017-09-02T00:11:31.644Z,8.4
2017-09-02T00:12:33.314Z,6.4
2017-09-02T00:13:35.019Z,7.1
2017-09-02T00:14:36.662Z,9.2
2017-09-02T00:15:38.347Z,7.5
2017-09-02T00:16:39.997Z,7.5
2017-09-02T00:17:41.657Z,9.2
2017-09-02T00:18:43.310Z,8.7
2017-09-02T00:19:44.972Z,9.7
2017-09-02T00:20:46.625Z,9.6
2017-09-02T00:21:48.276Z,8.1
2017-09-02T00:22:50.094Z,7.2
2017-09-02T00:23:51.745Z,8.4
2017-09-02T00:24:53.403Z,6.5
2017-09-02T00:25:55.053Z,7.6
2017-09-02T00:26:56.704Z,9.9
2017-09-02T00:27:58.389Z,10.4
2017-09-02T00:29:00.081Z,6.7
2017-09-02T00:30:01.750Z,7.3
2017-09-02T00:31:03.420Z,9.5
2017-09-02T00:32:05.128Z,7.2
2017-09-02T00:33:06.789Z,6.9
2017-09-02T00:34:08.451Z,8.5
2017-09-02T00:35:10.104Z,6.6
2017-09-02T00:36:11.766Z,5.7
2017-09-02T00:37:13.436Z,7.4
2017-09-02T00:38:15.119Z,7.0
2017-09-02T00:39:16.770Z,8.4
2017-09-02T00:40:18.420Z,8.1
2017-09-02T00:41:20.190Z,9.6
2017-09-02T00:42:21.853Z,7.4
2017-09-02T00:43:23.511Z,8.4
2017-09-02T00:44:25.168Z,12.1
2017-09-02T00:45:26.822Z,9.2
2017-09-02T00:46:28.478Z,10.6
2017-09-02T00:47:30.138Z,9.8
2017-09-02T00:48:31.800Z,9.4
2017-09-02T00:49:33.492Z,8.0
2017-09-02T00:50:35.198Z,9.7
2017-09-02T00:51:36.852Z,8.4
2017-09-02T00:52:38.504Z,8.4
2017-09-02T00:53:40.148Z,9.4
2017-09-02T00:54:41.818Z,10.3
2017-09-02T00:55:43.466Z,10.3
2017-09-02T00:56:45.122Z,7.0
2017-09-02T00:57:46.770Z,8.7
2017-09-02T00:58:48.419Z,6.9
2017-09-02T00:59:50.083Z,9.2
2017-09-02T01:00:51.741Z,8.8
2017-09-02T01:01:53.402Z,8.3
2017-09-02T01:02:55.067Z,7.8
2017-09-02T01:03:56.730Z,6.7
2017-09-02T01:04:58.377Z,9.4
2017-09-02T01:06:00.106Z,7.6
2017-09-02T01:07:01.765Z,9.8
2017-09-02T01:08:03.414Z,7.7
2017-09-02T01:09:05.068Z,9.2
2017-09-02T01:10:07.964Z,7.0
2017-09-02T01:11:09.616Z,8.5
2017-09-02T01:12:11.278Z,7.9
2017-09-02T01:13:12.929Z,8.4
2017-09-02T01:14:14.583Z,7.9
2017-09-02T01:15:16.239Z,7.6
2017-09-02T01:16:17.899Z,7.7
2017-09-02T01:17:19.568Z,8.6
2017-09-02T01:18:21.214Z,6.5
2017-09-02T01:19:22.888Z,8.0
2017-09-02T01:20:24.557Z,9.2
2017-09-02T01:21:26.221Z,8.3
2017-09-02T01:22:27.869Z,8.8
2017-09-02T01:23:29.536Z,8.5
2017-09-02T01:24:31.190Z,8.0
2017-09-02T01:25:32.894Z,8.8
2017-09-02T01:26:34.541Z,7.2
2017-09-02T01:27:36.211Z,6.8
2017-09-02T01:28:37.944Z,8.2
2017-09-02T01:29:39.604Z,6.7
2017-09-02T01:30:41.268Z,7.9
2017-09-02T01:31:42.920Z,8.5
2017-09-02T01:32:44.582Z,8.4
2017-09-02T01:33:46.294Z,9.2
2017-09-02T01:34:47.922Z,7.5
2017-09-02T01:35:49.573Z,6.8
2017-09-02T01:36:51.221Z,7.4
2017-09-02T01:37:52.874Z,11.1
2017-09-02T01:38:54.526Z,6.8
2017-09-02T01:39:56.183Z,8.3
2017-09-02T01:40:57.833Z,10.1
2017-09-02T01:41:59.515Z,10.7
2017-09-02T01:43:01.191Z,9.1
2017-09-02T01:44:02.838Z,8.0
2017-09-02T01:45:04.489Z,8.8
2017-09-02T01:46:06.145Z,9.3
2017-09-02T01:47:07.802Z,7.7
2017-09-02T01:48:09.485Z,10.2
2017-09-02T01:49:11.140Z,9.3
2017-09-02T01:50:12.789Z,8.0
2017-09-02T01:51:14.460Z,7.0
2017-09-02T01:52:16.165Z,9.2
2017-09-02T01:53:17.879Z,7.8
2017-09-02T01:54:19.550Z,11.4
2017-09-02T01:55:21.222Z,8.1
2017-09-02T02:01:58.251Z,7.0
2017-09-02T02:02:59.894Z,8.9
2017-09-02T02:04:51.802Z,8.3
2017-09-02T02:05:53.481Z,6.8
2017-09-02T02:06:55.156Z,8.7
2017-09-02T02:07:56.832Z,7.3
2017-09-02T02:08:58.492Z,10.1
2017-09-02T02:10:00.155Z,8.4
2017-09-02T02:11:01.879Z,8.3
2017-09-02T02:12:03.556Z,9.5
2017-09-02T02:13:05.208Z,6.9
2017-09-02T02:14:06.888Z,9.7
2017-09-02T02:15:08.569Z,10.6
2017-09-02T02:16:10.212Z,7.7
2017-09-02T02:17:11.878Z,9.5
2017-09-02T02:18:13.590Z,7.7
2017-09-02T02:19:15.280Z,8.9
2017-09-02T02:20:16.954Z,8.3
2017-09-02T02:21:18.622Z,10.9
2017-09-02T02:22:20.302Z,9.8
2017-09-02T02:23:21.985Z,9.0
2017-09-02T02:24:23.653Z,10.1
2017-09-02T02:25:25.361Z,7.5
2017-09-02T02:26:27.072Z,8.3
2017-09-02T02:27:28.761Z,8.4
2017-09-02T02:28:30.452Z,12.6
2017-09-02T02:29:32.153Z,8.6
2017-09-02T02:30:33.837Z,13.0
2017-09-02T02:31:35.599Z,11.8
2017-09-02T02:32:37.374Z,7.4
2017-09-02T02:33:39.080Z,10.0
2017-09-02T02:34:40.803Z,9.1
2017-09-02T02:35:42.612Z,9.3
2017-09-02T02:36:44.357Z,8.3
2017-09-02T02:37:46.206Z,7.7
2017-09-02T02:38:48.038Z,9.5
2017-09-02T02:39:49.782Z,7.0
2017-09-02T02:40:51.574Z,8.9
2017-09-02T02:41:53.304Z,9.6
2017-09-02T02:42:55.032Z,8.3
2017-09-02T02:43:56.835Z,8.7
2017-09-02T02:44:58.636Z,8.1
2017-09-02T02:46:00.436Z,7.5
2017-09-02T02:47:02.253Z,7.8
2017-09-02T02:48:04.085Z,10.2
2017-09-02T02:49:05.904Z,9.4
2017-09-02T02:50:07.716Z,11.8
2017-09-02T02:51:09.473Z,9.0
2017-09-02T02:52:11.205Z,7.5
2017-09-02T02:53:12.991Z,9.8
2017-09-02T02:54:14.758Z,9.8
2017-09-02T02:55:16.438Z,8.9
2017-09-02T02:56:18.238Z,11.3
2017-09-02T02:57:20.026Z,8.9
2017-09-02T02:58:21.720Z,9.2
2017-09-02T02:59:23.419Z,10.6
2017-09-02T03:00:25.142Z,9.7
2017-09-02T03:01:26.862Z,11.1
2017-09-02T03:02:28.610Z,9.1
2017-09-02T03:03:30.375Z,8.8
2017-09-02T03:04:32.156Z,7.5
2017-09-02T03:05:33.976Z,8.7
2017-09-02T03:06:35.713Z,11.4
2017-09-02T03:07:37.444Z,9.3
2017-09-02T03:08:39.237Z,10.8
2017-09-02T03:09:41.023Z,12.8
2017-09-02T03:10:42.762Z,9.6
2017-09-02T03:11:44.526Z,11.0
2017-09-02T03:12:46.311Z,9.7
2017-09-02T03:13:48.107Z,11.8
2017-09-02T03:14:49.831Z,12.7
2017-09-02T03:15:51.568Z,12.5
2017-09-02T03:16:53.419Z,16.1
2017-09-02T03:17:55.211Z,10.6
2017-09-02T03:18:56.930Z,11.0
2017-09-02T03:19:58.718Z,15.1
2017-09-02T03:21:00.517Z,12.4
2017-09-02T03:22:02.319Z,14.3
2017-09-02T03:23:04.069Z,10.6
2017-09-02T03:24:05.885Z,12.6
2017-09-02T03:25:07.653Z,14.1
2017-09-02T03:26:09.427Z,11.4
2017-09-02T03:27:11.193Z,10.5
2017-09-02T03:28:12.913Z,10.2
2017-09-02T03:29:14.681Z,12.2
2017-09-02T03:30:16.430Z,12.9
2017-09-02T03:31:18.228Z,12.8
2017-09-02T03:32:20.030Z,14.1
2017-09-02T03:33:21.821Z,13.6
2017-09-02T03:34:23.559Z,14.1
2017-09-02T03:35:25.276Z,13.4
2017-09-02T03:36:26.984Z,14.8
2017-09-02T03:37:28.842Z,12.0
2017-09-02T03:38:30.585Z,10.6
2017-09-02T03:39:32.241Z,12.3
2017-09-02T03:40:33.985Z,14.0
2017-09-02T03:41:35.734Z,11.1
2017-09-02T03:42:37.446Z,11.0
2017-09-02T03:43:39.112Z,10.7
2017-09-02T03:44:40.773Z,11.7
2017-09-02T03:45:42.448Z,12.5
2017-09-02T03:46:44.103Z,11.7
2017-09-02T03:47:45.754Z,10.7
2017-09-02T03:48:47.422Z,13.1
2017-09-02T03:49:49.088Z,13.1
2017-09-02T03:50:50.776Z,11.4
2017-09-02T03:51:52.424Z,12.3
2017-09-02T03:52:54.072Z,9.2
2017-09-02T03:53:55.739Z,11.6
2017-09-02T03:54:57.401Z,12.7
2017-09-02T03:55:59.059Z,12.0
2017-09-02T03:57:00.740Z,10.8
2017-09-02T03:58:02.416Z,12.9
2017-09-02T03:59:04.085Z,11.5
2017-09-02T04:00:05.762Z,11.2
2017-09-02T04:01:07.426Z,12.1
2017-09-02T04:02:09.103Z,13.2
2017-09-02T04:03:10.763Z,11.8
2017-09-02T04:04:12.428Z,13.3
2017-09-02T04:05:14.077Z,11.6
2017-09-02T04:06:15.739Z,15.2
2017-09-02T04:07:17.390Z,14.2
2017-09-02T04:08:19.045Z,12.7
2017-09-02T04:09:20.700Z,12.6
2017-09-02T04:10:22.364Z,13.3
2017-09-02T04:11:24.014Z,11.0
2017-09-02T04:12:25.670Z,9.7
2017-09-02T04:13:27.321Z,9.8
2017-09-02T04:14:29.002Z,8.5
2017-09-02T04:15:30.689Z,9.6
2017-09-02T04:16:32.380Z,10.7
2017-09-02T04:17:34.093Z,9.8
2017-09-02T04:18:35.803Z,12.3
2017-09-02T04:19:37.551Z,11.2
2017-09-02T04:20:39.982Z,9.8
2017-09-02T04:21:41.816Z,9.1
2017-09-02T04:22:43.657Z,11.0
2017-09-02T04:23:45.511Z,12.1
2017-09-02T04:24:47.330Z,11.2
2017-09-02T04:25:49.204Z,10.4
2017-09-02T04:26:51.078Z,11.1
2017-09-02T04:27:52.836Z,11.2
2017-09-02T04:28:54.601Z,9.5
2017-09-02T04:29:56.339Z,10.0
2017-09-02T04:30:58.099Z,9.1
2017-09-02T04:31:59.901Z,12.3
2017-09-02T04:33:01.682Z,10.2
2017-09-02T04:34:03.466Z,10.7
2017-09-02T04:35:05.337Z,9.2
2017-09-02T04:36:07.160Z,9.2
2017-09-02T04:37:09.044Z,14.2
2017-09-02T04:38:10.780Z,10.7
2017-09-02T04:39:12.622Z,13.7
2017-09-02T04:40:14.416Z,9.4
2017-09-02T04:41:16.233Z,10.6
2017-09-02T04:42:18.049Z,12.6
2017-09-02T04:43:19.895Z,9.3
2017-09-02T04:44:21.681Z,11.4
2017-09-02T04:45:23.492Z,9.0
2017-09-02T04:46:25.267Z,9.8
2017-09-02T04:47:27.098Z,12.1
2017-09-02T04:48:28.863Z,9.9
2017-09-02T04:49:30.692Z,9.5
2017-09-02T04:50:32.487Z,12.2
2017-09-02T04:51:34.279Z,10.0
2017-09-02T04:52:36.053Z,13.2
2017-09-02T04:53:37.823Z,8.4
2017-09-02T04:54:39.674Z,11.1
2017-09-02T04:55:41.424Z,10.6
2017-09-02T04:56:43.308Z,11.7
2017-09-02T04:57:45.047Z,9.0
2017-09-02T04:58:46.794Z,9.7
2017-09-02T04:59:48.606Z,12.9
2017-09-02T05:00:50.340Z,10.0
2017-09-02T05:01:52.078Z,10.2
2017-09-02T05:02:53.855Z,9.6
2017-09-02T05:03:55.655Z,11.9
2017-09-02T05:04:57.507Z,12.3
2017-09-02T05:05:59.363Z,11.7
2017-09-02T05:07:01.159Z,11.3
2017-09-02T05:08:02.903Z,12.5
2017-09-02T05:09:04.773Z,10.9
2017-09-02T05:10:06.500Z,15.7
2017-09-02T05:11:08.287Z,12.9
2017-09-02T05:12:10.049Z,14.8
2017-09-02T05:13:11.811Z,14.3
2017-09-02T05:14:13.614Z,12.9
2017-09-02T05:15:15.365Z,9.1
2017-09-02T05:16:17.168Z,11.6
2017-09-02T05:17:18.973Z,9.8
2017-09-02T05:18:20.766Z,10.2
2017-09-02T05:19:22.551Z,10.8
2017-09-02T05:20:24.336Z,15.9
2017-09-02T05:21:26.132Z,13.4
2017-09-02T05:22:27.888Z,13.3
2017-09-02T05:23:29.694Z,10.9
2017-09-02T05:24:31.499Z,12.5
2017-09-02T05:25:33.297Z,11.7
2017-09-02T05:26:35.130Z,11.1
2017-09-02T05:27:36.889Z,11.3
2017-09-02T05:28:38.673Z,11.2
2017-09-02T05:29:40.492Z,14.8
2017-09-02T05:30:42.308Z,11.5
2017-09-02T05:31:44.131Z,15.2
2017-09-02T05:32:45.949Z,13.3
2017-09-02T05:33:47.745Z,14.5
2017-09-02T05:34:49.569Z,11.3
2017-09-02T05:35:51.378Z,9.9
2017-09-02T05:36:53.183Z,10.7
2017-09-02T05:37:54.953Z,13.8
2017-09-02T05:38:56.712Z,9.2
2017-09-02T05:39:58.552Z,10.2
2017-09-02T05:41:00.394Z,15.1
2017-09-02T05:42:02.211Z,10.7
2017-09-02T05:43:04.001Z,11.0
2017-09-02T05:44:05.719Z,10.7
2017-09-02T05:45:07.531Z,11.5
2017-09-02T05:46:09.267Z,13.9
2017-09-02T05:47:11.032Z,12.4
2017-09-02T05:48:12.802Z,13.3
2017-09-02T05:49:14.577Z,12.4
2017-09-02T05:50:16.325Z,15.5
2017-09-02T05:51:18.118Z,11.2
2017-09-02T05:52:19.914Z,13.7
2017-09-02T05:53:21.632Z,12.9
2017-09-02T05:54:23.506Z,14.1
2017-09-02T05:55:25.349Z,14.2
2017-09-02T06:01:33.329Z,9.8
2017-09-02T06:02:35.074Z,14.7
2017-09-02T06:03:36.754Z,12.5
2017-09-02T06:04:38.464Z,14.3
2017-09-02T06:05:40.171Z,14.2
2017-09-02T06:06:41.919Z,12.6
2017-09-02T06:07:43.648Z,13.2
2017-09-02T06:08:45.367Z,15.1
2017-09-02T06:09:47.055Z,11.1
2017-09-02T06:10:48.765Z,15.7
2017-09-02T06:11:50.500Z,13.2
2017-09-02T06:12:52.248Z,11.3
2017-09-02T06:13:54.079Z,14.0
2017-09-02T06:14:55.869Z,13.4
2017-09-02T06:15:57.668Z,14.4
2017-09-02T06:16:59.534Z,13.5
2017-09-02T06:18:01.345Z,16.2
2017-09-02T06:19:03.122Z,14.1
2017-09-02T06:20:04.955Z,12.7
2017-09-02T06:21:06.780Z,15.4
2017-09-02T06:22:08.548Z,15.4
2017-09-02T06:23:10.379Z,13.6
2017-09-02T06:24:12.194Z,11.8
2017-09-02T06:25:14.100Z,16.4
2017-09-02T06:26:15.893Z,15.5
2017-09-02T06:27:17.740Z,17.0
2017-09-02T06:28:19.586Z,15.6
2017-09-02T06:29:21.416Z,16.9
2017-09-02T06:30:23.153Z,24.4
2017-09-02T06:31:25.008Z,25.8
2017-09-02T06:32:26.898Z,16.4
2017-09-02T06:33:28.757Z,16.6
2017-09-02T06:34:30.628Z,16.2
2017-09-02T06:35:32.501Z,17.8
2017-09-02T06:36:34.323Z,17.0
2017-09-02T06:37:36.111Z,19.4
2017-09-02T06:38:37.881Z,19.1
2017-09-02T06:39:39.816Z,16.5
2017-09-02T06:40:41.576Z,19.3
2017-09-02T06:41:43.406Z,16.7
2017-09-02T06:42:45.268Z,18.2
2017-09-02T06:43:47.179Z,22.6
2017-09-02T06:44:49.013Z,17.4
2017-09-02T06:45:51.882Z,19.7
2017-09-02T06:46:53.792Z,17.1
2017-09-02T06:47:55.730Z,20.3
2017-09-02T06:48:57.535Z,21.4
2017-09-02T06:49:59.385Z,22.2
2017-09-02T06:51:01.317Z,18.6
2017-09-02T06:52:03.146Z,25.8
2017-09-02T06:53:04.933Z,27.7
2017-09-02T06:54:06.798Z,31.7
2017-09-02T06:55:08.620Z,34.9
2017-09-02T06:56:10.476Z,28.7
2017-09-02T06:57:12.376Z,30.4
2017-09-02T06:58:14.406Z,30.4
2017-09-02T06:59:16.246Z,38.4
2017-09-02T07:00:18.158Z,34.2
2017-09-02T07:01:19.980Z,33.1
2017-09-02T07:02:21.855Z,33.7
2017-09-02T07:03:23.658Z,34.7
2017-09-02T07:04:25.452Z,32.8
2017-09-02T07:05:27.396Z,33.6
2017-09-02T07:06:29.208Z,36.1
2017-09-02T07:07:31.203Z,34.8
2017-09-02T07:08:33.039Z,37.5
2017-09-02T07:09:34.892Z,33.4
2017-09-02T07:10:36.831Z,36.8
2017-09-02T07:11:38.684Z,38.1
2017-09-02T07:12:40.611Z,38.0
2017-09-02T07:13:42.512Z,34.0
2017-09-02T07:14:44.388Z,34.2
2017-09-02T07:15:46.270Z,34.4
2017-09-02T07:16:48.247Z,38.5
2017-09-02T07:17:50.229Z,35.2
2017-09-02T07:18:52.143Z,34.4
2017-09-02T07:19:54.045Z,39.2
2017-09-02T07:20:56.061Z,37.1
2017-09-02T07:21:58.002Z,35.0
2017-09-02T07:22:59.922Z,34.4
2017-09-02T07:24:01.757Z,36.0
2017-09-02T07:25:03.613Z,33.9
2017-09-02T07:26:05.496Z,37.9
2017-09-02T07:27:07.346Z,33.0
2017-09-02T07:28:09.207Z,34.9
2017-09-02T07:29:11.117Z,38.4
2017-09-02T07:30:13.018Z,37.2
2017-09-02T07:31:14.927Z,34.7
2017-09-02T07:32:16.765Z,32.0
2017-09-02T07:33:18.603Z,38.6
2017-09-02T07:34:20.541Z,38.7
2017-09-02T07:35:22.346Z,34.5
2017-09-02T07:36:24.160Z,35.1
2017-09-02T07:37:26.058Z,33.7
2017-09-02T07:38:27.907Z,38.1
2017-09-02T07:39:29.763Z,37.5
2017-09-02T07:40:31.667Z,38.2
2017-09-02T07:41:33.511Z,35.8
2017-09-02T07:42:35.370Z,36.7
2017-09-02T07:43:37.210Z,34.3
2017-09-02T07:44:38.976Z,41.5
2017-09-02T07:45:40.717Z,36.4
2017-09-02T07:46:42.573Z,36.5
2017-09-02T07:47:44.456Z,38.4
2017-09-02T07:48:46.321Z,40.3
2017-09-02T07:49:48.207Z,37.0
2017-09-02T07:50:50.221Z,35.2
2017-09-02T07:51:52.205Z,37.7
2017-09-02T07:52:54.034Z,37.8
2017-09-02T07:53:55.917Z,40.2
2017-09-02T07:54:57.812Z,36.2
2017-09-02T07:55:59.651Z,37.9
2017-09-02T07:57:01.724Z,42.1
2017-09-02T07:58:03.652Z,38.4
2017-09-02T07:59:05.672Z,40.9
2017-09-02T08:00:07.545Z,36.8
2017-09-02T08:01:09.470Z,43.7
2017-09-02T08:02:11.315Z,41.9
2017-09-02T08:03:13.054Z,39.0
2017-09-02T08:04:15.158Z,40.2
2017-09-02T08:05:17.092Z,38.4
2017-09-02T08:06:18.944Z,41.6
2017-09-02T08:07:20.832Z,36.2
2017-09-02T08:08:22.668Z,39.0
2017-09-02T08:09:24.521Z,35.4
2017-09-02T08:10:26.358Z,41.2
2017-09-02T08:11:28.215Z,41.7
2017-09-02T08:12:30.051Z,38.8
2017-09-02T08:13:31.990Z,39.8
2017-09-02T08:14:33.764Z,39.7
2017-09-02T08:15:35.557Z,39.1
2017-09-02T08:16:37.381Z,37.1
2017-09-02T08:17:39.203Z,42.7
2017-09-02T08:18:41.051Z,40.9
2017-09-02T08:19:42.852Z,39.9
2017-09-02T08:20:44.653Z,37.6
2017-09-02T08:21:46.432Z,35.4
2017-09-02T08:22:48.646Z,43.9
2017-09-02T08:23:50.573Z,41.1
2017-09-02T08:24:52.389Z,41.0
2017-09-02T08:25:54.197Z,37.9
2017-09-02T08:26:56.272Z,39.9
2017-09-02T08:27:58.074Z,41.9
2017-09-02T08:29:00.351Z,41.2
2017-09-02T08:30:05.030Z,41.5
2017-09-02T08:31:07.382Z,40.0
2017-09-02T08:32:09.178Z,39.9
2017-09-02T08:33:11.732Z,42.4
2017-09-02T08:34:13.550Z,41.2
2017-09-02T08:35:15.302Z,43.2
2017-09-02T08:36:17.060Z,41.1
2017-09-02T08:37:18.975Z,43.9
2017-09-02T08:38:20.734Z,46.2
2017-09-02T08:39:22.626Z,40.2
2017-09-02T08:40:24.324Z,43.1
2017-09-02T08:41:26.131Z,40.5
2017-09-02T08:42:27.825Z,39.0
2017-09-02T08:43:29.557Z,39.7
2017-09-02T08:44:31.292Z,39.2
2017-09-02T08:45:33.043Z,41.8
2017-09-02T08:46:34.765Z,37.4
2017-09-02T08:47:36.587Z,38.7
2017-09-02T08:48:38.343Z,38.1
2017-09-02T08:49:40.077Z,38.0
2017-09-02T08:50:41.937Z,37.1
2017-09-02T08:51:43.654Z,36.6
2017-09-02T08:52:45.448Z,41.6
2017-09-02T08:53:47.212Z,35.6
2017-09-02T08:54:48.994Z,36.2
2017-09-02T08:55:50.966Z,39.2
2017-09-02T08:56:52.773Z,37.6
2017-09-02T08:57:54.561Z,34.4
2017-09-02T08:58:56.342Z,35.7
2017-09-02T08:59:58.230Z,36.7
2017-09-02T09:01:00.173Z,38.4
2017-09-02T09:02:02.011Z,42.7
2017-09-02T09:03:04.421Z,36.3
2017-09-02T09:04:06.216Z,36.6
2017-09-02T09:05:09.015Z,38.3
2017-09-02T09:06:10.215Z,35.3
2017-09-02T09:07:12.537Z,40.1
2017-09-02T09:08:14.374Z,36.0
2017-09-02T09:09:16.312Z,37.9
2017-09-02T09:10:19.132Z,40.4
2017-09-02T09:11:21.723Z,38.7
2017-09-02T09:12:23.612Z,37.9
2017-09-02T09:13:25.389Z,35.7
2017-09-02T09:14:27.359Z,35.9
2017-09-02T09:15:29.346Z,38.5
2017-09-02T09:16:31.161Z,37.9
2017-09-02T09:17:33.192Z,36.0
2017-09-02T09:18:38.887Z,36.3
2017-09-02T09:19:40.700Z,36.8
2017-09-02T09:20:43.381Z,39.8
2017-09-02T09:21:45.173Z,38.0
2017-09-02T09:22:46.963Z,34.6
2017-09-02T09:23:48.985Z,39.2
2017-09-02T09:24:50.771Z,38.7
2017-09-02T09:25:53.233Z,40.7
2017-09-02T09:26:55.115Z,37.6
2017-09-02T09:27:56.906Z,43.2
2017-09-02T09:28:58.731Z,36.0
2017-09-02T09:30:02.243Z,37.7
2017-09-02T09:31:04.044Z,39.0
2017-09-02T09:32:05.870Z,38.1
2017-09-02T09:33:07.666Z,39.3
2017-09-02T09:34:09.496Z,36.9
2017-09-02T09:35:11.330Z,37.9
2017-09-02T09:36:13.128Z,33.8
2017-09-02T09:37:14.906Z,40.0
2017-09-02T09:38:16.689Z,39.0
2017-09-02T09:39:18.553Z,40.7
2017-09-02T09:40:20.408Z,39.6
2017-09-02T09:41:22.323Z,39.1
2017-09-02T09:42:24.151Z,37.1
2017-09-02T09:43:25.938Z,40.9
2017-09-02T09:44:27.711Z,37.3
2017-09-02T09:45:29.516Z,38.4
2017-09-02T09:46:31.241Z,34.3
2017-09-02T09:47:33.116Z,37.4
2017-09-02T09:48:34.904Z,34.9
2017-09-02T09:49:36.666Z,34.5
2017-09-02T09:50:38.498Z,32.6
2017-09-02T09:51:40.271Z,36.9
2017-09-02T09:52:42.062Z,37.2
2017-09-02T09:53:43.835Z,38.5
2017-09-02T09:54:45.618Z,33.4
2017-09-02T10:01:08.190Z,35.8
2017-09-02T10:02:09.849Z,35.7
2017-09-02T10:03:11.519Z,34.1
2017-09-02T10:04:13.180Z,28.8
2017-09-02T10:05:14.839Z,31.5
2017-09-02T10:06:16.523Z,32.0
2017-09-02T10:07:18.738Z,31.5
2017-09-02T10:08:20.402Z,29.4
2017-09-02T10:09:22.068Z,28.4
2017-09-02T10:10:23.726Z,27.9
2017-09-02T10:11:30.430Z,30.0
2017-09-02T10:12:32.140Z,29.4
2017-09-02T10:13:33.798Z,29.9
2017-09-02T10:14:35.467Z,29.6
2017-09-02T10:15:37.143Z,28.6
2017-09-02T10:16:38.849Z,29.8
2017-09-02T10:17:40.531Z,32.1
2017-09-02T10:18:44.280Z,32.7
2017-09-02T10:19:45.821Z,32.6
2017-09-02T10:20:47.484Z,25.9
2017-09-02T10:21:49.153Z,26.9
2017-09-02T10:22:51.159Z,28.7
2017-09-02T10:23:52.920Z,27.8
2017-09-02T10:24:54.796Z,26.9
2017-09-02T10:25:56.460Z,25.4
2017-09-02T10:26:58.128Z,25.9
2017-09-02T10:28:00.158Z,26.2
2017-09-02T10:29:01.898Z,21.9
2017-09-02T10:30:03.812Z,25.3
2017-09-02T10:31:05.467Z,22.4
2017-09-02T10:32:07.263Z,24.2
2017-09-02T10:33:08.930Z,23.1
2017-09-02T10:34:10.669Z,21.8
2017-09-02T10:35:12.335Z,23.0
2017-09-02T10:36:13.997Z,24.1
2017-09-02T10:37:15.863Z,21.8
2017-09-02T10:38:17.500Z,21.5
2017-09-02T10:39:19.456Z,21.7
2017-09-02T10:40:21.110Z,19.2
2017-09-02T10:41:22.777Z,23.3
2017-09-02T10:42:24.565Z,23.5
2017-09-02T10:43:26.254Z,25.2
2017-09-02T10:44:28.465Z,22.2
2017-09-02T10:45:30.129Z,27.7
2017-09-02T10:46:31.806Z,22.0
2017-09-02T10:47:33.475Z,22.2
2017-09-02T10:48:35.162Z,25.2
2017-09-02T10:49:36.838Z,26.8
2017-09-02T10:50:38.535Z,31.5
2017-09-02T10:51:40.167Z,29.8
2017-09-02T10:52:41.865Z,28.4
2017-09-02T10:53:43.791Z,28.9
2017-09-02T10:54:45.457Z,28.3
2017-09-02T10:55:47.136Z,31.7
2017-09-02T10:56:49.020Z,30.0
2017-09-02T10:57:50.697Z,28.8
2017-09-02T10:58:52.486Z,29.7
2017-09-02T10:59:58.090Z,34.2
2017-09-02T11:00:59.644Z,31.6
2017-09-02T11:02:01.818Z,30.9
2017-09-02T11:03:03.514Z,33.5
2017-09-02T11:04:05.895Z,31.3
2017-09-02T11:05:07.685Z,30.3
2017-09-02T11:06:09.637Z,32.7
2017-09-02T11:07:11.870Z,30.8
2017-09-02T11:08:13.592Z,30.1
2017-09-02T11:09:15.292Z,27.8
2017-09-02T11:10:17.131Z,27.0
2017-09-02T11:11:19.320Z,26.2
2017-09-02T11:12:20.996Z,27.7
2017-09-02T11:13:23.752Z,26.3
2017-09-02T11:14:26.623Z,30.7
2017-09-02T11:15:28.285Z,30.2
2017-09-02T11:16:30.280Z,29.2
2017-09-02T11:17:32.006Z,27.8
2017-09-02T11:18:34.532Z,29.1
2017-09-02T11:19:36.265Z,27.2
2017-09-02T11:20:37.966Z,24.4
2017-09-02T11:21:40.228Z,25.9
2017-09-02T11:22:42.365Z,27.9
2017-09-02T11:23:44.381Z,25.4
2017-09-02T11:24:46.219Z,25.4
2017-09-02T11:25:48.233Z,26.2
2017-09-02T11:26:50.139Z,30.9
2017-09-02T11:27:52.243Z,31.2
2017-09-02T11:28:54.546Z,26.0
2017-09-02T11:29:56.264Z,27.4
2017-09-02T11:30:58.047Z,30.1
2017-09-02T11:32:00.214Z,26.1
2017-09-02T11:33:02.085Z,26.7
2017-09-02T11:34:04.223Z,24.7
2017-09-02T11:35:06.000Z,25.7
2017-09-02T11:36:08.208Z,27.0
2017-09-02T11:37:10.027Z,22.8
2017-09-02T11:38:12.473Z,25.5
2017-09-02T11:39:14.290Z,23.1
2017-09-02T11:40:16.586Z,24.5
2017-09-02T11:41:18.433Z,24.8
2017-09-02T11:42:20.604Z,22.3
2017-09-02T11:43:22.338Z,24.1
2017-09-02T11:44:24.650Z,23.4
2017-09-02T11:45:26.454Z,24.0
2017-09-02T11:46:28.746Z,21.1
2017-09-02T11:47:30.502Z,22.8
2017-09-02T11:48:32.359Z,23.4
2017-09-02T11:49:34.156Z,23.8
2017-09-02T11:50:35.957Z,21.4
2017-09-02T11:51:37.751Z,20.2
2017-09-02T11:52:39.661Z,27.3
2017-09-02T11:53:41.480Z,26.9
2017-09-02T11:54:43.486Z,25.0
2017-09-02T11:55:45.344Z,24.2
2017-09-02T11:56:47.607Z,29.8
2017-09-02T11:57:49.385Z,26.3
2017-09-02T11:58:51.159Z,22.2
2017-09-02T11:59:53.337Z,19.1
2017-09-02T12:00:55.088Z,18.1
2017-09-02T12:01:56.979Z,20.1
2017-09-02T12:02:59.287Z,27.0
2017-09-02T12:04:01.172Z,25.7
2017-09-02T12:05:03.186Z,25.4
2017-09-02T12:06:04.940Z,17.0
2017-09-02T12:07:06.884Z,16.8
2017-09-02T12:08:08.986Z,17.0
2017-09-02T12:09:10.929Z,16.4
2017-09-02T12:10:13.255Z,18.8
2017-09-02T12:11:15.146Z,14.3
2017-09-02T12:12:16.948Z,14.3
2017-09-02T12:13:18.834Z,11.7
2017-09-02T12:14:20.689Z,10.7
2017-09-02T12:15:22.863Z,11.6
2017-09-02T12:16:24.676Z,12.4
2017-09-02T12:17:27.672Z,9.8
2017-09-02T12:18:30.312Z,10.9
2017-09-02T12:19:32.140Z,12.1
2017-09-02T12:20:36.116Z,11.1
2017-09-02T12:21:38.065Z,10.5
2017-09-02T12:22:40.069Z,11.7
2017-09-02T12:23:41.895Z,9.4
2017-09-02T12:24:44.883Z,8.9
2017-09-02T12:25:46.957Z,9.2
2017-09-02T12:26:48.679Z,10.0
2017-09-02T12:27:51.932Z,11.8
2017-09-02T12:28:53.650Z,10.3
2017-09-02T12:29:56.892Z,11.3
2017-09-02T12:30:58.684Z,10.3
2017-09-02T12:32:00.767Z,12.6
2017-09-02T12:33:02.497Z,11.5
2017-09-02T12:34:04.282Z,10.9
2017-09-02T12:35:05.972Z,9.3
2017-09-02T12:36:07.745Z,11.2
2017-09-02T12:37:09.468Z,8.6
2017-09-02T12:38:11.198Z,11.3
2017-09-02T12:39:13.396Z,9.3
2017-09-02T12:40:15.851Z,8.8
2017-09-02T12:41:18.139Z,10.4
2017-09-02T12:42:20.782Z,9.5
2017-09-02T12:43:25.424Z,8.2
2017-09-02T12:44:28.050Z,8.7
2017-09-02T12:45:29.763Z,10.1
2017-09-02T12:46:33.305Z,11.6
2017-09-02T12:47:36.330Z,11.7
2017-09-02T12:48:39.036Z,11.5
2017-09-02T12:49:42.481Z,8.7
2017-09-02T12:50:46.121Z,11.5
2017-09-02T12:51:48.876Z,9.3
2017-09-02T12:52:53.217Z,8.6
2017-09-02T12:53:57.940Z,10.2
2017-09-02T12:55:00.510Z,13.3
2017-09-02T12:56:02.467Z,8.5
2017-09-02T12:57:05.351Z,8.7
2017-09-02T12:58:07.072Z,10.8
2017-09-02T12:59:09.052Z,9.8
2017-09-02T13:00:11.028Z,10.9
2017-09-02T13:01:13.324Z,11.1
2017-09-02T13:02:15.051Z,11.3
2017-09-02T13:03:16.760Z,9.5
2017-09-02T13:04:18.501Z,10.6
2017-09-02T13:05:20.266Z,12.8
2017-09-02T13:06:22.023Z,12.7
2017-09-02T13:07:23.808Z,13.2
2017-09-02T13:08:25.554Z,12.3
2017-09-02T13:09:27.815Z,13.2
2017-09-02T13:10:30.287Z,12.5
2017-09-02T13:11:32.160Z,12.6
2017-09-02T13:12:33.902Z,11.1
2017-09-02T13:13:35.622Z,11.7
2017-09-02T13:14:37.365Z,11.1
2017-09-02T13:15:40.011Z,12.3
2017-09-02T13:16:41.822Z,8.9
2017-09-02T13:17:43.651Z,10.8
2017-09-02T13:18:48.397Z,11.5
2017-09-02T13:19:53.319Z,9.2
2017-09-02T13:20:55.057Z,12.5
2017-09-02T13:21:56.822Z,9.3
2017-09-02T13:22:58.584Z,11.5
2017-09-02T13:24:00.339Z,8.4
2017-09-02T13:25:02.070Z,10.3
2017-09-02T13:26:04.583Z,9.8
2017-09-02T13:27:06.380Z,10.8
2017-09-02T13:28:08.133Z,9.5
2017-09-02T13:29:10.950Z,10.0
2017-09-02T13:30:13.104Z,14.9
2017-09-02T13:31:15.171Z,6.8
2017-09-02T13:32:17.043Z,6.1
2017-09-02T13:33:18.975Z,7.3
2017-09-02T13:34:21.214Z,8.2
2017-09-02T13:35:22.984Z,8.2
2017-09-02T13:36:24.927Z,6.6
2017-09-02T13:37:26.904Z,7.1
2017-09-02T13:38:28.864Z,6.5
2017-09-02T13:39:31.492Z,7.9
2017-09-02T13:40:35.049Z,7.2
2017-09-02T13:41:38.560Z,7.2
2017-09-02T13:42:40.558Z,7.9
2017-09-02T13:43:42.530Z,6.8
2017-09-02T13:44:44.528Z,6.9
2017-09-02T13:45:47.871Z,7.0
2017-09-02T13:46:50.738Z,9.3
2017-09-02T13:47:52.645Z,8.6
2017-09-02T13:48:54.677Z,8.2
2017-09-02T13:49:56.853Z,9.3
2017-09-02T13:50:58.919Z,11.0
2017-09-02T13:52:01.701Z,8.5
2017-09-02T13:53:04.366Z,8.0
2017-09-02T13:54:06.444Z,8.5
2017-09-02T13:55:08.589Z,9.1
2017-09-02T14:02:08.392Z,10.7
2017-09-02T14:03:17.919Z,9.4
2017-09-02T14:04:27.341Z,8.2
2017-09-02T14:05:43.153Z,6.9
2017-09-02T14:06:55.440Z,8.0
2017-09-02T14:08:10.464Z,8.7
2017-09-02T14:09:27.916Z,7.3
2017-09-02T14:10:47.952Z,6.5
2017-09-02T14:12:00.918Z,5.6
2017-09-02T14:13:17.958Z,7.1
2017-09-02T14:14:26.896Z,7.9
2017-09-02T14:15:45.410Z,5.2
2017-09-02T14:16:52.415Z,7.0